Aviation Digital Data Service (ADDS)

Output produced by METARs form (0246 UTC 20 March 2019)
found at http://www.aviationweather.gov/metar/data/
 
Forecast for: VERC (RANCHI , IN)
Text: TAF VERC 192300Z 2000/2009 00000KT 3000 HZ SCT100
Forecast period: 0000 to 0300 UTC 20 March 2019
Forecast type: FROM: standard forecast or significant change
Winds: calm
Visibility: 1.86 miles (2.99 km)
Ceiling: at least 12,000 feet AGL
Clouds: scattered clouds at 10000 feet AGL
Weather: HZ  (haze)
Text: BECMG 2003/2005 29004KT 5000 HZ NSC
Forecast period: 0300 to 0700 UTC 20 March 2019
Forecast type: BECOMING: Conditions expected to become as follows by 0500 UTC 20 March 2019
Winds: from the WNW (290 degrees) at 5 MPH (4 knots; 2.1 m/s)
Visibility: 3 miles (5 km)
Ceiling: unknown
Clouds: missing
Weather: HZ  (haze)
Text: BECMG 2007/2009 6000
Forecast period: 0700 to 0900 UTC 20 March 2019
Forecast type: BECOMING: Conditions expected to become as follows by 0900 UTC 20 March 2019
Winds: from the WNW (290 degrees) at 5 MPH (4 knots; 2.1 m/s)
Visibility: 4 miles (6 km)
Ceiling: unknown
Clouds: missing
Weather: HZ  (haze)